createdAt,value
2018-07-10T00:02:30.487Z,66.20
2018-07-10T00:06:46.734Z,65.70
2018-07-10T00:11:06.184Z,65.50
2018-07-10T00:15:09.418Z,65.30
2018-07-10T00:19:12.661Z,64.30
2018-07-10T00:23:15.952Z,63.70
2018-07-10T00:27:19.182Z,63.80
2018-07-10T00:31:22.413Z,64.60
2018-07-10T00:35:25.929Z,64.30
2018-07-10T00:39:29.181Z,64.70
2018-07-10T00:43:32.413Z,64.70
2018-07-10T00:47:35.668Z,65.20
2018-07-10T00:51:40.356Z,65.20
2018-07-10T00:55:43.613Z,65.00
2018-07-10T00:59:46.880Z,65.20
2018-07-10T01:03:50.373Z,67.10
2018-07-10T01:07:53.934Z,68.10
2018-07-10T01:11:57.188Z,68.10
2018-07-10T01:16:00.461Z,64.70
2018-07-10T01:20:03.719Z,64.20
2018-07-10T01:24:06.970Z,63.80
2018-07-10T01:28:10.209Z,65.10
2018-07-10T01:32:13.482Z,68.10
2018-07-10T01:36:16.725Z,67.90
2018-07-10T01:40:19.995Z,66.90
2018-07-10T01:44:23.220Z,64.80
2018-07-10T01:48:26.472Z,64.10
2018-07-10T01:56:32.809Z,63.00
2018-07-10T02:00:38.365Z,63.40
2018-07-10T02:04:41.620Z,63.80
2018-07-10T02:08:44.881Z,64.30
2018-07-10T02:12:48.116Z,64.80
2018-07-10T02:16:51.356Z,64.20
2018-07-10T02:20:57.470Z,63.90
2018-07-10T02:25:00.772Z,64.10
2018-07-10T02:29:04.020Z,64.40
2018-07-10T02:33:07.269Z,65.20
2018-07-10T02:37:10.532Z,65.90
2018-07-10T02:41:15.452Z,66.50
2018-07-10T02:45:18.962Z,66.70
2018-07-10T02:49:22.976Z,67.10
2018-07-10T02:53:28.973Z,67.30
2018-07-10T02:57:32.237Z,67.50
2018-07-10T03:01:35.580Z,68.00
2018-07-10T03:05:38.847Z,68.00
2018-07-10T03:09:42.147Z,67.90
2018-07-10T03:13:45.403Z,67.80
2018-07-10T03:17:48.904Z,68.10
2018-07-10T03:21:52.178Z,68.00
2018-07-10T03:25:55.412Z,67.90
2018-07-10T03:29:59.416Z,68.40
2018-07-10T03:34:09.221Z,68.60
2018-07-10T03:38:12.485Z,68.70
2018-07-10T03:42:16.844Z,68.50
2018-07-10T03:50:23.059Z,68.10
2018-07-10T03:54:26.337Z,68.00
2018-07-10T03:58:29.592Z,67.30
2018-07-10T04:02:33.165Z,67.20
2018-07-10T04:06:36.469Z,67.30
2018-07-10T04:14:44.456Z,66.30
2018-07-10T04:18:47.717Z,66.00
2018-07-10T04:22:55.601Z,65.90
2018-07-10T04:28:06.501Z,66.00
2018-07-10T04:32:12.597Z,65.80
2018-07-10T04:40:19.452Z,64.70
2018-07-10T04:44:26.609Z,65.20
2018-07-10T04:52:35.336Z,64.80
2018-07-10T04:56:43.681Z,64.50
2018-07-10T05:00:50.397Z,64.80
2018-07-10T05:08:57.090Z,64.40
2018-07-10T05:13:02.132Z,64.30
2018-07-10T05:17:05.362Z,64.30
2018-07-10T05:21:12.305Z,64.40
2018-07-10T05:25:15.557Z,63.70
2018-07-10T05:29:18.814Z,63.40
2018-07-10T05:33:22.534Z,63.30
2018-07-10T05:37:33.919Z,63.40
2018-07-10T05:41:40.154Z,62.80
2018-07-10T05:45:44.045Z,62.90
2018-07-10T05:49:47.958Z,61.70
2018-07-10T05:53:51.214Z,60.90
2018-07-10T05:57:54.637Z,60.70
2018-07-10T06:01:57.893Z,58.90
2018-07-10T06:10:04.114Z,58.70
2018-07-10T06:14:07.478Z,59.10
2018-07-10T06:18:10.697Z,59.60
2018-07-10T06:22:13.919Z,59.80
2018-07-10T06:30:20.200Z,60.30
2018-07-10T06:34:33.180Z,60.30
2018-07-10T06:38:41.767Z,60.30
2018-07-10T06:43:51.713Z,60.30
2018-07-10T06:47:54.976Z,60.80
2018-07-10T06:52:13.945Z,60.00
2018-07-10T06:56:25.648Z,59.00
2018-07-10T07:00:28.920Z,58.30
2018-07-10T07:04:32.176Z,58.00
2018-07-10T07:08:35.435Z,58.50
2018-07-10T07:12:39.431Z,59.60
2018-07-10T07:16:42.678Z,60.20
2018-07-10T07:20:45.960Z,60.40
2018-07-10T07:24:49.213Z,59.50
2018-07-10T07:28:52.474Z,58.70
2018-07-10T07:36:58.694Z,56.50
2018-07-10T07:41:01.949Z,57.30
2018-07-10T07:45:05.202Z,56.80
2018-07-10T07:49:08.442Z,56.40
2018-07-10T07:53:11.697Z,56.20
2018-07-10T08:01:18.423Z,56.90
2018-07-10T08:09:24.641Z,55.30
2018-07-10T08:13:27.911Z,55.00
2018-07-10T08:17:33.077Z,54.00
2018-07-10T08:21:36.321Z,53.00
2018-07-10T08:25:39.578Z,53.50
2018-07-10T08:33:45.914Z,53.30
2018-07-10T08:37:49.150Z,53.50
2018-07-10T08:41:52.413Z,53.30
2018-07-10T08:45:55.670Z,53.40
2018-07-10T08:49:58.918Z,53.30
2018-07-10T08:54:02.173Z,54.00
2018-07-10T08:58:05.434Z,54.10
2018-07-10T09:02:08.754Z,52.20
2018-07-10T09:06:12.005Z,51.10
2018-07-10T09:10:15.238Z,50.70
2018-07-10T09:18:21.437Z,50.40
2018-07-10T09:26:27.689Z,50.40
2018-07-10T09:30:30.966Z,50.60
2018-07-10T09:34:34.214Z,51.10
2018-07-10T09:38:37.472Z,52.10
2018-07-10T09:42:45.450Z,52.80
2018-07-10T09:46:48.707Z,53.00
2018-07-10T09:50:51.948Z,52.30
2018-07-10T09:54:56.004Z,51.30
2018-07-10T09:58:59.188Z,51.00
2018-07-10T10:03:03.213Z,52.60
2018-07-10T10:07:06.705Z,53.60
2018-07-10T10:11:09.966Z,54.10
2018-07-10T10:15:13.221Z,53.90
2018-07-10T10:19:16.468Z,53.80
2018-07-10T10:23:19.705Z,54.20
2018-07-10T10:27:24.512Z,54.50
2018-07-10T10:31:27.780Z,54.20
2018-07-10T10:35:31.166Z,53.80
2018-07-10T10:39:34.422Z,54.40
2018-07-10T10:43:37.695Z,54.10
2018-07-10T10:47:40.945Z,55.00
2018-07-10T10:51:44.201Z,54.40
2018-07-10T10:55:47.561Z,54.00
2018-07-10T10:59:51.413Z,52.90
2018-07-10T11:03:54.681Z,53.50
2018-07-10T11:07:58.394Z,53.30
2018-07-10T11:12:01.633Z,53.20
2018-07-10T11:20:26.214Z,52.90
2018-07-10T11:33:11.633Z,54.60
2018-07-10T11:37:14.881Z,54.20
2018-07-10T11:41:18.158Z,54.30
2018-07-10T11:45:21.429Z,53.70
2018-07-10T11:49:24.668Z,54.00
2018-07-10T11:53:27.913Z,53.90
2018-07-10T11:57:31.434Z,53.90
2018-07-10T12:01:35.588Z,54.00
2018-07-10T12:05:39.544Z,53.30
2018-07-10T12:14:50.153Z,55.50
2018-07-10T12:22:56.769Z,56.40
2018-07-10T12:31:03.536Z,56.00
2018-07-10T12:35:07.977Z,56.30
2018-07-10T12:39:11.220Z,56.40
2018-07-10T12:43:14.461Z,57.00
2018-07-10T12:47:17.692Z,57.50
2018-07-10T12:51:20.952Z,62.90
2018-07-10T12:55:25.082Z,66.80
2018-07-10T12:59:28.342Z,68.50
2018-07-10T13:03:31.605Z,72.20
2018-07-10T13:07:34.862Z,74.10
2018-07-10T13:15:41.178Z,74.60
2018-07-10T13:19:44.421Z,74.80
2018-07-10T13:23:47.653Z,74.40
2018-07-10T13:27:51.153Z,72.90
2018-07-10T13:31:54.402Z,71.70
2018-07-10T13:40:01.936Z,68.70
2018-07-10T13:48:08.198Z,65.00
2018-07-10T13:52:11.814Z,63.70
2018-07-10T13:56:15.190Z,62.70
2018-07-10T14:00:18.762Z,61.30
2018-07-10T14:08:25.022Z,63.30
2018-07-10T14:12:28.548Z,63.50
2018-07-10T14:16:31.789Z,62.90
2018-07-10T14:24:45.502Z,63.60
2018-07-10T14:28:48.734Z,62.70
2018-07-10T14:32:51.993Z,60.90
2018-07-10T14:36:55.244Z,61.00
2018-07-10T14:41:01.143Z,59.80
2018-07-10T14:49:08.557Z,59.90
2018-07-10T14:53:11.809Z,59.20
2018-07-10T14:57:15.069Z,56.00
2018-07-10T15:01:18.316Z,58.20
2018-07-10T15:05:21.700Z,59.50
2018-07-10T15:09:25.401Z,61.70
2018-07-10T15:13:29.001Z,62.70
2018-07-10T15:17:37.733Z,64.10
2018-07-10T15:21:41.005Z,64.60
2018-07-10T15:25:44.271Z,64.00
2018-07-10T15:33:50.549Z,64.30
2018-07-10T15:37:53.806Z,64.40
2018-07-10T15:41:57.177Z,64.40
2018-07-10T15:50:03.412Z,60.90
2018-07-10T15:54:07.081Z,62.10
2018-07-10T15:58:10.332Z,64.10
2018-07-10T16:02:13.616Z,65.10
2018-07-10T16:06:16.955Z,66.50
2018-07-10T16:10:20.122Z,67.20
2018-07-10T16:18:28.810Z,68.50
2018-07-10T16:22:34.557Z,70.00
2018-07-10T16:26:37.808Z,70.90
2018-07-10T16:30:41.095Z,71.60
2018-07-10T16:34:44.360Z,73.10
2018-07-10T16:38:47.614Z,73.00
2018-07-10T16:42:52.978Z,73.40
2018-07-10T16:47:18.760Z,74.00
2018-07-10T16:51:27.158Z,73.70
2018-07-10T16:55:30.413Z,73.10
2018-07-10T16:59:33.687Z,72.50
2018-07-10T17:07:40.136Z,72.50
2018-07-10T17:11:43.386Z,73.90
2018-07-10T17:15:46.641Z,74.80
2018-07-10T17:19:50.034Z,75.80
2018-07-10T17:23:54.550Z,75.10
2018-07-10T17:27:57.797Z,74.40
2018-07-10T17:32:01.057Z,74.50
2018-07-10T17:36:04.314Z,74.20
2018-07-10T17:40:07.579Z,73.20
2018-07-10T17:44:13.075Z,72.50
2018-07-10T17:48:16.353Z,73.10
2018-07-10T17:52:19.666Z,79.70
2018-07-10T17:56:25.734Z,83.70
2018-07-10T18:00:29.039Z,84.00
2018-07-10T18:04:32.293Z,90.00
2018-07-10T18:08:35.564Z,91.00
2018-07-10T18:12:38.832Z,91.50
2018-07-10T18:16:42.105Z,94.30
2018-07-10T18:20:45.406Z,96.80
2018-07-10T18:24:48.645Z,98.90
2018-07-10T18:28:52.220Z,99.90
2018-07-10T18:32:55.471Z,99.90
2018-07-10T18:36:59.871Z,99.90
2018-07-10T18:41:03.312Z,99.90
2018-07-10T18:45:07.503Z,99.90
2018-07-10T18:49:10.750Z,99.90
2018-07-10T18:53:14.070Z,99.90
2018-07-10T18:58:27.328Z,99.90
2018-07-10T19:02:43.635Z,99.90
2018-07-10T19:06:46.989Z,99.90
2018-07-10T19:14:55.422Z,99.90
2018-07-10T19:19:03.359Z,99.90
2018-07-10T19:23:10.083Z,99.90
2018-07-10T19:27:24.315Z,99.90
2018-07-10T19:31:31.434Z,99.90
2018-07-10T19:35:34.745Z,99.90
2018-07-10T19:39:38.871Z,99.90
2018-07-10T19:43:43.728Z,99.90
2018-07-10T19:47:47.561Z,99.90
2018-07-10T19:51:50.828Z,99.90
2018-07-10T19:55:54.089Z,99.90
2018-07-10T19:59:57.349Z,99.90
2018-07-10T20:04:05.286Z,99.90
2018-07-10T20:08:13.334Z,99.90
2018-07-10T20:12:18.832Z,99.90
2018-07-10T20:16:39.293Z,99.90
2018-07-10T20:20:39.378Z,99.90
2018-07-10T20:24:50.441Z,99.90
2018-07-10T20:33:54.075Z,99.90
2018-07-10T20:37:59.056Z,99.90
2018-07-10T20:42:04.978Z,99.90
2018-07-10T20:46:10.668Z,99.90
2018-07-10T20:50:17.235Z,99.90
2018-07-10T20:54:40.918Z,99.90
2018-07-10T20:58:48.999Z,99.90
2018-07-10T21:03:04.622Z,99.90
2018-07-10T21:07:14.117Z,99.90
2018-07-10T21:11:21.825Z,99.90
2018-07-10T21:15:36.378Z,99.90
2018-07-10T21:19:47.584Z,99.90
2018-07-10T21:23:58.416Z,99.90
2018-07-10T21:28:08.346Z,99.90
2018-07-10T21:32:20.793Z,99.90
2018-07-10T21:37:31.980Z,99.90
2018-07-10T21:41:44.475Z,99.90
2018-07-10T21:46:59.621Z,99.90
2018-07-10T21:55:05.859Z,99.90
2018-07-10T21:59:10.248Z,99.90
2018-07-10T22:07:16.567Z,99.90
2018-07-10T22:11:19.797Z,99.90
2018-07-10T22:15:23.087Z,99.90
2018-07-10T22:19:28.446Z,99.90
2018-07-10T22:23:31.723Z,99.90
2018-07-10T22:27:37.090Z,99.90
2018-07-10T22:35:48.812Z,99.90
2018-07-10T22:39:52.071Z,99.90
2018-07-10T22:43:55.336Z,99.90
2018-07-10T22:47:58.595Z,99.90
2018-07-10T22:52:02.621Z,99.90
2018-07-10T22:56:05.891Z,99.90
2018-07-10T23:00:09.360Z,99.90
2018-07-10T23:08:17.132Z,99.90
2018-07-10T23:12:20.400Z,99.90
2018-07-10T23:16:24.987Z,99.90
2018-07-10T23:20:28.241Z,99.90
2018-07-10T23:24:31.829Z,99.90
2018-07-10T23:28:35.086Z,99.90
2018-07-10T23:32:38.339Z,99.90
2018-07-10T23:36:41.600Z,99.90
2018-07-10T23:40:44.836Z,99.90
2018-07-10T23:44:48.100Z,99.90
2018-07-10T23:48:54.089Z,99.90
2018-07-10T23:53:35.340Z,99.90
2018-07-10T23:57:38.589Z,99.90
